createdAt,value
2022-08-03T00:02:15.665Z,8.32
2022-08-03T00:04:42.925Z,8.73
2022-08-03T00:07:10.036Z,8.02
2022-08-03T00:09:37.135Z,8.48
2022-08-03T00:12:04.607Z,8.90
2022-08-03T00:14:31.723Z,8.80
2022-08-03T00:16:58.981Z,8.40
2022-08-03T00:19:26.093Z,8.60
2022-08-03T00:21:53.148Z,8.55
2022-08-03T00:24:20.436Z,8.77
2022-08-03T00:26:47.570Z,8.35
2022-08-03T00:29:14.706Z,8.68
2022-08-03T00:31:52.912Z,8.63
2022-08-03T00:34:36.542Z,9.38
2022-08-03T00:37:13.846Z,8.73
2022-08-03T00:39:41.087Z,9.57
2022-08-03T00:42:08.197Z,9.27
2022-08-03T00:44:43.629Z,8.80
2022-08-03T00:47:11.813Z,8.80
2022-08-03T00:49:39.958Z,8.95
2022-08-03T00:52:11.888Z,9.65
2022-08-03T00:54:39.608Z,9.13
2022-08-03T00:57:07.433Z,8.10
2022-08-03T00:59:34.850Z,9.00
2022-08-03T01:02:02.460Z,8.95
2022-08-03T01:04:29.533Z,8.77
2022-08-03T01:07:17.500Z,10.05
2022-08-03T01:10:01.502Z,9.52
2022-08-03T01:12:44.135Z,9.25
2022-08-03T01:15:29.645Z,9.00
2022-08-03T01:18:03.784Z,9.25
2022-08-03T01:20:38.398Z,9.20
2022-08-03T01:23:16.428Z,8.57
2022-08-03T01:26:09.882Z,8.98
2022-08-03T01:29:01.599Z,9.07
2022-08-03T01:32:58.042Z,8.98
2022-08-03T01:34:36.862Z,13.10
2022-08-03T01:37:08.038Z,9.10
2022-08-03T01:39:38.254Z,8.88
2022-08-03T01:42:07.936Z,9.38
2022-08-03T01:44:41.175Z,9.45
2022-08-03T01:47:12.566Z,9.13
2022-08-03T01:49:43.598Z,10.80
2022-08-03T01:52:12.110Z,10.43
2022-08-03T01:54:44.480Z,8.70
2022-08-03T01:57:13.566Z,9.02
2022-08-03T01:59:42.239Z,8.75
2022-08-03T02:02:32.052Z,9.43
2022-08-03T02:05:03.464Z,9.30
2022-08-03T02:07:33.129Z,8.38
2022-08-03T02:10:02.933Z,9.52
2022-08-03T02:12:32.716Z,8.85
2022-08-03T02:15:20.623Z,9.27
2022-08-03T02:17:49.577Z,9.55
2022-08-03T02:20:18.359Z,9.52
2022-08-03T02:22:47.595Z,9.75
2022-08-03T02:25:16.270Z,9.40
2022-08-03T02:28:05.180Z,9.68
2022-08-03T02:30:39.331Z,9.52
2022-08-03T02:33:12.538Z,9.52
2022-08-03T02:35:40.683Z,9.48
2022-08-03T02:38:10.267Z,9.65
2022-08-03T02:40:40.313Z,9.27
2022-08-03T02:43:16.380Z,12.13
2022-08-03T02:45:45.888Z,9.98
2022-08-03T02:48:18.290Z,10.35
2022-08-03T02:50:46.491Z,10.82
2022-08-03T02:53:15.690Z,10.93
2022-08-03T02:55:47.577Z,10.77
2022-08-03T02:58:17.617Z,13.82
2022-08-03T03:00:45.521Z,10.30
2022-08-03T03:03:13.923Z,10.95
2022-08-03T03:05:55.165Z,11.23
2022-08-03T03:08:28.350Z,10.82
2022-08-03T03:11:01.334Z,11.13
2022-08-03T03:13:32.530Z,11.10
2022-08-03T03:16:04.954Z,11.70
2022-08-03T03:18:34.259Z,11.23
2022-08-03T03:21:04.646Z,11.00
2022-08-03T03:26:02.429Z,11.20
2022-08-03T03:28:31.632Z,10.95
2022-08-03T03:30:59.988Z,11.45
2022-08-03T03:33:28.493Z,10.75
2022-08-03T03:35:56.207Z,10.95
2022-08-03T03:38:23.492Z,10.13
2022-08-03T03:40:50.586Z,10.20
2022-08-03T03:43:18.800Z,10.30
2022-08-03T03:45:47.628Z,12.23
2022-08-03T03:48:14.942Z,10.80
2022-08-03T03:50:43.640Z,10.50
2022-08-03T03:53:12.078Z,10.60
2022-08-03T03:56:01.181Z,9.80
2022-08-03T03:58:27.490Z,11.90
2022-08-03T04:00:54.726Z,10.10
2022-08-03T04:03:21.830Z,9.88
2022-08-03T04:06:07.529Z,10.60
2022-08-03T04:08:53.134Z,11.77
2022-08-03T04:11:41.806Z,10.35
2022-08-03T04:14:19.366Z,10.77
2022-08-03T04:16:56.044Z,9.93
2022-08-03T04:19:30.626Z,10.65
2022-08-03T04:22:02.680Z,10.60
2022-08-03T04:24:38.770Z,10.48
2022-08-03T04:27:09.394Z,10.00
2022-08-03T04:29:48.251Z,11.52
2022-08-03T04:32:18.309Z,10.70
2022-08-03T04:34:45.992Z,11.02
2022-08-03T04:37:23.143Z,11.13
2022-08-03T04:39:51.671Z,11.70
2022-08-03T04:42:21.819Z,10.85
2022-08-03T04:47:16.588Z,10.52
2022-08-03T04:49:44.213Z,11.18
2022-08-03T04:52:11.889Z,11.75
2022-08-03T04:54:48.752Z,11.13
2022-08-03T04:57:22.904Z,13.02
2022-08-03T05:00:02.168Z,10.70
2022-08-03T05:02:33.663Z,10.90
2022-08-03T05:05:00.833Z,11.05
2022-08-03T05:07:35.824Z,10.55
2022-08-03T05:10:14.795Z,11.88
2022-08-03T05:12:44.504Z,12.20
2022-08-03T05:15:12.074Z,11.70
2022-08-03T05:17:39.159Z,10.90
2022-08-03T05:20:06.672Z,11.13
2022-08-03T05:22:33.918Z,10.77
2022-08-03T05:25:02.330Z,11.05
2022-08-03T05:27:30.596Z,10.23
2022-08-03T05:30:30.670Z,10.40
2022-08-03T05:32:44.826Z,11.15
2022-08-03T05:35:55.881Z,10.00
2022-08-03T05:37:59.062Z,10.50
2022-08-03T05:40:26.812Z,9.75
2022-08-03T05:42:57.543Z,9.05
2022-08-03T05:45:28.433Z,10.40
2022-08-03T05:47:56.012Z,9.93
2022-08-03T05:50:23.722Z,10.38
2022-08-03T05:52:50.983Z,10.82
2022-08-03T05:55:19.052Z,9.57
2022-08-03T05:57:47.043Z,9.65
2022-08-03T06:02:43.802Z,11.90
2022-08-03T06:05:11.028Z,10.40
2022-08-03T06:07:38.307Z,10.60
2022-08-03T06:10:37.242Z,8.38
2022-08-03T06:12:53.600Z,9.95
2022-08-03T06:15:21.078Z,8.55
2022-08-03T06:17:50.114Z,8.77
2022-08-03T06:20:19.735Z,8.52
2022-08-03T06:22:51.183Z,7.53
2022-08-03T06:27:54.249Z,7.53
2022-08-03T06:30:21.654Z,7.93
2022-08-03T06:32:51.741Z,6.50
2022-08-03T06:35:20.130Z,8.05
2022-08-03T06:37:51.805Z,8.05
2022-08-03T06:40:29.220Z,7.53
2022-08-03T06:42:57.699Z,7.25
2022-08-03T06:45:25.103Z,6.95
2022-08-03T06:48:07.666Z,7.80
2022-08-03T06:50:36.382Z,7.07
2022-08-03T06:53:04.955Z,6.68
2022-08-03T06:55:32.720Z,7.00
2022-08-03T06:58:03.149Z,7.43
2022-08-03T07:00:31.088Z,7.40
2022-08-03T07:02:58.646Z,7.80
2022-08-03T07:05:25.967Z,7.65
2022-08-03T07:07:57.753Z,7.25
2022-08-03T07:10:25.613Z,6.80
2022-08-03T07:12:56.557Z,6.68
2022-08-03T07:15:38.312Z,7.10
2022-08-03T07:18:12.044Z,7.63
2022-08-03T07:20:39.181Z,7.00
2022-08-03T07:23:06.233Z,4.68
2022-08-03T07:25:33.493Z,5.20
2022-08-03T07:28:00.527Z,5.80
2022-08-03T07:30:27.643Z,5.25
2022-08-03T07:32:54.852Z,5.72
2022-08-03T07:35:24.785Z,4.38
2022-08-03T07:37:54.850Z,4.90
2022-08-03T07:40:22.969Z,4.85
2022-08-03T07:42:52.040Z,4.55
2022-08-03T07:45:23.479Z,5.03
2022-08-03T07:47:53.169Z,4.70
2022-08-03T07:50:21.265Z,5.00
2022-08-03T07:52:48.639Z,5.30
2022-08-03T07:55:35.257Z,5.50
2022-08-03T07:58:12.482Z,4.60
2022-08-03T08:00:39.879Z,5.18
2022-08-03T08:03:07.004Z,4.40
2022-08-03T08:05:34.681Z,4.45
2022-08-03T08:08:02.683Z,3.88
2022-08-03T08:10:30.031Z,5.20
2022-08-03T08:12:57.559Z,4.70
2022-08-03T08:15:25.246Z,4.78
2022-08-03T08:17:54.901Z,4.18
2022-08-03T08:20:28.129Z,3.95
2022-08-03T08:23:37.029Z,4.50
2022-08-03T08:28:31.373Z,4.32
2022-08-03T08:31:01.385Z,5.20
2022-08-03T08:33:42.170Z,4.07
2022-08-03T08:36:15.771Z,4.50
2022-08-03T08:38:45.105Z,3.45
2022-08-03T08:41:13.959Z,3.85
2022-08-03T08:43:42.165Z,4.22
2022-08-03T08:46:23.615Z,5.07
2022-08-03T08:48:53.711Z,5.30
2022-08-03T08:51:22.445Z,5.37
2022-08-03T08:53:53.975Z,4.10
2022-08-03T08:56:25.532Z,3.95
2022-08-03T08:58:56.936Z,3.80
2022-08-03T09:01:24.095Z,4.00
2022-08-03T09:03:53.486Z,4.10
2022-08-03T09:06:21.872Z,4.35
2022-08-03T09:08:49.177Z,4.50
2022-08-03T09:11:16.400Z,4.90
2022-08-03T09:13:43.510Z,5.68
2022-08-03T09:16:11.505Z,3.90
2022-08-03T09:18:39.229Z,4.38
2022-08-03T09:21:37.292Z,4.57
2022-08-03T09:24:08.626Z,4.28
2022-08-03T09:26:40.772Z,4.38
2022-08-03T09:29:14.433Z,4.40
2022-08-03T09:31:46.240Z,4.85
2022-08-03T09:34:15.697Z,4.90
2022-08-03T09:36:50.586Z,5.30
2022-08-03T09:39:37.544Z,5.70
2022-08-03T09:42:14.811Z,4.40
2022-08-03T09:44:47.953Z,7.57
2022-08-03T09:47:28.364Z,4.70
2022-08-03T09:50:01.842Z,4.55
2022-08-03T09:52:49.231Z,5.72
2022-08-03T09:56:21.147Z,4.40
2022-08-03T09:58:09.614Z,4.72
2022-08-03T10:01:06.013Z,4.35
2022-08-03T10:03:36.347Z,4.15
2022-08-03T10:06:28.865Z,3.70
2022-08-03T10:09:16.578Z,4.40
2022-08-03T10:11:46.914Z,8.18
2022-08-03T10:14:20.152Z,4.97
2022-08-03T10:16:48.486Z,4.22
2022-08-03T10:19:16.623Z,4.43
2022-08-03T10:22:01.477Z,4.35
2022-08-03T10:24:30.839Z,4.32
2022-08-03T10:27:07.190Z,4.15
2022-08-03T10:29:48.937Z,4.22
2022-08-03T10:32:28.006Z,4.20
2022-08-03T10:35:12.400Z,4.35
2022-08-03T10:38:08.355Z,4.65
2022-08-03T10:40:58.642Z,4.53
2022-08-03T10:43:37.258Z,4.82
2022-08-03T10:46:07.398Z,4.55
2022-08-03T10:48:36.853Z,4.35
2022-08-03T10:51:04.968Z,4.25
2022-08-03T10:53:40.526Z,4.47
2022-08-03T10:56:57.741Z,4.10
2022-08-03T10:59:47.140Z,5.78
2022-08-03T11:02:15.652Z,4.47
2022-08-03T11:04:44.876Z,4.63
2022-08-03T11:07:22.819Z,5.13
2022-08-03T11:09:55.957Z,4.20
2022-08-03T11:12:32.949Z,4.32
2022-08-03T11:15:07.266Z,4.57
2022-08-03T11:17:45.872Z,4.30
2022-08-03T11:20:14.320Z,4.45
2022-08-03T11:22:51.726Z,4.57
2022-08-03T11:25:53.686Z,4.38
2022-08-03T11:28:28.731Z,6.63
2022-08-03T11:30:56.115Z,5.10
2022-08-03T11:33:31.322Z,4.88
2022-08-03T11:36:00.832Z,4.43
2022-08-03T11:38:28.147Z,4.53
2022-08-03T11:40:55.531Z,4.68
2022-08-03T11:43:22.840Z,4.45
2022-08-03T11:46:29.589Z,4.68
2022-08-03T11:49:10.230Z,5.10
2022-08-03T11:51:40.363Z,4.93
2022-08-03T11:54:08.172Z,5.03
2022-08-03T11:56:47.182Z,5.22
2022-08-03T11:59:20.452Z,6.35
2022-08-03T12:01:48.613Z,5.30
2022-08-03T12:04:16.567Z,5.25
2022-08-03T12:07:01.587Z,5.10
2022-08-03T12:09:28.772Z,5.88
2022-08-03T12:12:00.406Z,4.50
2022-08-03T12:14:48.292Z,4.90
2022-08-03T12:19:46.592Z,6.03
2022-08-03T12:22:16.093Z,6.20
2022-08-03T12:24:46.818Z,5.50
2022-08-03T12:27:25.282Z,5.30
2022-08-03T12:29:58.270Z,4.72
2022-08-03T12:32:30.285Z,5.65
2022-08-03T12:35:01.515Z,4.63
2022-08-03T12:37:32.165Z,5.22
2022-08-03T12:40:09.467Z,5.18
2022-08-03T12:42:39.637Z,4.85
2022-08-03T12:45:27.374Z,4.90
2022-08-03T12:48:00.467Z,5.03
2022-08-03T12:50:31.763Z,5.05
2022-08-03T12:53:01.144Z,5.07
2022-08-03T12:55:57.141Z,5.30
2022-08-03T12:58:35.394Z,5.15
2022-08-03T13:01:10.061Z,5.43
2022-08-03T13:03:49.619Z,5.60
2022-08-03T13:06:26.596Z,4.90
2022-08-03T13:09:05.814Z,4.82
2022-08-03T13:11:57.341Z,4.90
2022-08-03T13:14:21.299Z,5.30
2022-08-03T13:16:49.394Z,4.90
2022-08-03T13:19:16.924Z,4.93
2022-08-03T13:22:01.384Z,9.13
2022-08-03T13:24:33.524Z,5.32
2022-08-03T13:28:01.838Z,5.88
2022-08-03T13:29:50.158Z,5.85
2022-08-03T13:32:17.397Z,4.95
2022-08-03T13:34:44.522Z,5.18
2022-08-03T13:37:12.273Z,5.43
2022-08-03T13:39:57.914Z,5.65
2022-08-03T13:42:31.771Z,5.30
2022-08-03T13:45:00.165Z,4.82
2022-08-03T13:47:28.061Z,4.97
2022-08-03T13:50:01.730Z,4.95
2022-08-03T13:52:33.617Z,5.10
2022-08-03T13:55:01.729Z,6.07
2022-08-03T13:58:04.544Z,5.35
2022-08-03T14:00:27.297Z,4.65
2022-08-03T14:03:04.047Z,5.43
2022-08-03T14:05:32.891Z,5.05
2022-08-03T14:08:05.791Z,5.50
2022-08-03T14:10:34.635Z,4.65
2022-08-03T14:13:01.794Z,5.38
2022-08-03T14:15:29.140Z,5.38
2022-08-03T14:18:16.133Z,5.03
2022-08-03T14:23:24.458Z,9.02
2022-08-03T14:25:52.923Z,10.85
2022-08-03T14:28:25.005Z,7.20
2022-08-03T14:30:52.907Z,6.50
2022-08-03T14:33:20.672Z,6.70
2022-08-03T14:35:49.321Z,6.85
2022-08-03T14:38:16.868Z,6.38
2022-08-03T14:40:44.238Z,7.32
2022-08-03T14:43:11.534Z,6.57
2022-08-03T14:45:39.715Z,6.05
2022-08-03T14:50:28.751Z,6.45
2022-08-03T14:50:55.449Z,5.78
2022-08-03T14:53:22.984Z,6.35
2022-08-03T14:55:51.923Z,5.25
2022-08-03T14:58:22.756Z,6.13
2022-08-03T15:00:51.948Z,6.68
2022-08-03T15:03:24.771Z,5.78
2022-08-03T15:05:53.794Z,5.72
2022-08-03T15:08:22.316Z,5.05
2022-08-03T15:10:50.580Z,6.57
2022-08-03T15:13:19.607Z,6.30
2022-08-03T15:15:47.888Z,5.75
2022-08-03T15:18:15.295Z,5.60
2022-08-03T15:20:45.357Z,5.85
2022-08-03T15:23:14.991Z,7.25
2022-08-03T15:26:29.034Z,6.00
2022-08-03T15:28:30.861Z,6.70
2022-08-03T15:30:57.997Z,9.68
2022-08-03T15:33:25.257Z,5.20
2022-08-03T15:36:11.127Z,6.18
2022-08-03T15:38:38.230Z,5.88
2022-08-03T15:41:05.400Z,5.90
2022-08-03T15:43:38.362Z,5.20
2022-08-03T15:46:28.734Z,7.57
2022-08-03T15:48:53.722Z,6.97
2022-08-03T15:51:20.849Z,6.07
2022-08-03T15:53:47.910Z,6.60
2022-08-03T15:56:18.558Z,6.57
2022-08-03T15:59:10.362Z,5.57
2022-08-03T16:01:33.574Z,5.93
2022-08-03T16:04:00.658Z,6.57
2022-08-03T16:06:29.637Z,5.72
2022-08-03T16:09:23.074Z,6.10
2022-08-03T16:11:55.036Z,7.20
2022-08-03T16:14:34.854Z,6.43
2022-08-03T16:17:07.545Z,7.05
2022-08-03T16:19:35.519Z,7.00
2022-08-03T16:22:03.242Z,9.32
2022-08-03T16:24:30.823Z,6.20
2022-08-03T16:27:00.475Z,6.65
2022-08-03T16:29:28.592Z,6.45
2022-08-03T16:31:55.648Z,6.40
2022-08-03T16:34:22.835Z,6.38
2022-08-03T16:36:49.997Z,6.55
2022-08-03T16:39:17.152Z,6.10
2022-08-03T16:41:54.475Z,7.43
2022-08-03T16:44:29.755Z,7.45
2022-08-03T16:46:57.344Z,5.72
2022-08-03T16:49:55.251Z,7.05
2022-08-03T16:52:12.985Z,7.45
2022-08-03T16:54:40.827Z,6.80
2022-08-03T16:57:08.597Z,6.70
2022-08-03T16:59:37.038Z,6.53
2022-08-03T17:02:10.252Z,7.43
2022-08-03T17:04:40.932Z,5.90
2022-08-03T17:07:16.960Z,5.70
2022-08-03T17:09:45.097Z,5.80
2022-08-03T17:12:13.533Z,6.00
2022-08-03T17:14:41.543Z,5.22
2022-08-03T17:17:26.028Z,7.50
2022-08-03T17:19:55.173Z,6.47
2022-08-03T17:22:27.900Z,6.60
2022-08-03T17:24:57.812Z,7.13
2022-08-03T17:28:48.572Z,6.03
2022-08-03T17:32:57.045Z,7.15
2022-08-03T17:35:35.522Z,6.05
2022-08-03T17:38:06.746Z,6.32
2022-08-03T17:40:38.075Z,5.88
2022-08-03T17:44:08.196Z,6.38
2022-08-03T17:45:54.812Z,6.25
2022-08-03T17:48:24.930Z,5.63
2022-08-03T17:51:15.420Z,6.80
2022-08-03T17:54:18.552Z,5.60
2022-08-03T17:56:51.868Z,5.93
2022-08-03T17:59:51.359Z,6.03
2022-08-03T18:03:18.182Z,5.40
2022-08-03T18:06:10.347Z,5.90
2022-08-03T18:08:50.528Z,5.93
2022-08-03T18:11:21.809Z,5.63
2022-08-03T18:14:23.861Z,6.90
2022-08-03T18:17:01.829Z,7.45
2022-08-03T18:20:03.558Z,5.80
2022-08-03T18:22:20.567Z,12.82
2022-08-03T18:24:51.255Z,6.82
2022-08-03T18:27:21.856Z,7.03
2022-08-03T18:32:18.914Z,6.53
2022-08-03T18:34:53.508Z,7.47
2022-08-03T18:37:25.271Z,6.90
2022-08-03T18:42:52.847Z,5.95
2022-08-03T18:45:57.767Z,6.10
2022-08-03T18:48:16.031Z,5.88
2022-08-03T18:50:52.465Z,6.63
2022-08-03T18:56:51.794Z,6.22
2022-08-03T18:59:39.592Z,7.60
2022-08-03T19:02:17.288Z,7.30
2022-08-03T19:04:48.310Z,6.78
2022-08-03T19:07:23.291Z,6.70
2022-08-03T19:09:54.475Z,7.10
2022-08-03T19:12:39.418Z,6.25
2022-08-03T19:15:12.639Z,8.82
2022-08-03T19:17:53.680Z,6.60
2022-08-03T19:20:23.145Z,6.82
2022-08-03T19:22:54.430Z,8.15
2022-08-03T19:25:34.821Z,8.13
2022-08-03T19:28:07.319Z,7.90
2022-08-03T19:30:38.972Z,7.13
2022-08-03T19:33:12.061Z,7.25
2022-08-03T19:35:55.696Z,7.70
2022-08-03T19:38:28.387Z,7.55
2022-08-03T19:41:00.971Z,7.30
2022-08-03T19:43:49.393Z,7.57
2022-08-03T19:46:30.495Z,7.60
2022-08-03T19:48:58.672Z,7.68
2022-08-03T19:52:00.513Z,7.95
2022-08-03T19:54:29.524Z,7.65
2022-08-03T19:57:06.720Z,7.78
2022-08-03T19:59:49.631Z,7.45
2022-08-03T20:02:26.873Z,6.80
2022-08-03T20:07:48.281Z,34.58
2022-08-03T20:10:17.476Z,13.30
2022-08-03T20:12:46.459Z,6.97
2022-08-03T20:15:13.937Z,6.88
2022-08-03T20:17:55.944Z,7.15
2022-08-03T20:20:33.854Z,7.03
2022-08-03T20:23:10.353Z,6.72
2022-08-03T20:25:57.235Z,8.20
2022-08-03T20:28:35.168Z,7.05
2022-08-03T20:31:18.991Z,6.93
2022-08-03T20:33:49.024Z,6.70
2022-08-03T20:36:18.557Z,7.75
2022-08-03T20:38:50.165Z,7.05
2022-08-03T20:41:19.620Z,7.90
2022-08-03T20:43:49.213Z,7.45
2022-08-03T20:46:38.238Z,7.07
2022-08-03T20:49:06.795Z,8.40
2022-08-03T20:51:49.762Z,7.10
2022-08-03T20:54:28.715Z,7.10
2022-08-03T20:56:59.518Z,7.35
2022-08-03T20:59:36.916Z,7.70
2022-08-03T21:02:19.695Z,7.15
2022-08-03T21:04:56.445Z,7.53
2022-08-03T21:07:24.431Z,7.55
2022-08-03T21:10:15.370Z,7.10
2022-08-03T21:12:58.868Z,6.78
2022-08-03T21:13:00.957Z,6.15
2022-08-03T21:13:09.983Z,6.88
2022-08-03T21:13:12.580Z,8.65
2022-08-03T21:16:12.604Z,7.90
2022-08-03T21:18:36.464Z,8.50
2022-08-03T21:21:05.431Z,7.53
2022-08-03T21:23:47.711Z,7.90
2022-08-03T21:26:21.394Z,7.50
2022-08-03T21:28:50.077Z,7.38
2022-08-03T21:31:24.490Z,7.70
2022-08-03T21:34:03.543Z,7.35
2022-08-03T21:36:33.734Z,8.00
2022-08-03T21:41:32.449Z,7.95
2022-08-03T21:46:33.862Z,8.13
2022-08-03T21:50:04.709Z,8.88
2022-08-03T21:51:54.123Z,8.13
2022-08-03T21:54:24.413Z,8.18
2022-08-03T21:59:20.630Z,7.57
2022-08-03T22:01:55.245Z,8.27
2022-08-03T22:04:55.494Z,8.40
2022-08-03T22:07:14.280Z,7.82
2022-08-03T22:09:51.400Z,7.55
2022-08-03T22:12:24.105Z,7.80
2022-08-03T22:15:01.242Z,8.25
2022-08-03T22:17:55.917Z,7.97
2022-08-03T22:20:24.453Z,7.82
2022-08-03T22:22:57.016Z,8.02
2022-08-03T22:25:30.765Z,7.90
2022-08-03T22:28:00.894Z,8.60
2022-08-03T22:30:28.339Z,8.52
2022-08-03T22:32:57.632Z,8.25
2022-08-03T22:35:27.715Z,7.95
2022-08-03T22:37:58.562Z,8.45
2022-08-03T22:40:27.849Z,8.50
2022-08-03T22:42:55.298Z,8.18
2022-08-03T22:46:06.877Z,8.35
2022-08-03T22:48:11.104Z,8.07
2022-08-03T22:50:39.278Z,7.93
2022-08-03T22:53:06.978Z,8.50
2022-08-03T22:55:34.451Z,8.07
2022-08-03T22:58:01.641Z,8.77
2022-08-03T23:00:28.737Z,8.00
2022-08-03T23:03:00.316Z,8.60
2022-08-03T23:06:02.413Z,8.70
2022-08-03T23:08:24.202Z,8.80
2022-08-03T23:10:53.354Z,9.45
2022-08-03T23:13:25.677Z,9.50
2022-08-03T23:15:59.182Z,8.98
2022-08-03T23:18:34.113Z,8.65
2022-08-03T23:21:11.322Z,8.80
2022-08-03T23:23:44.415Z,8.93
2022-08-03T23:26:13.920Z,9.40
2022-08-03T23:28:45.322Z,9.50
2022-08-03T23:31:13.918Z,9.35
2022-08-03T23:33:44.532Z,9.63
2022-08-03T23:36:30.219Z,9.30
2022-08-03T23:39:02.298Z,8.85
2022-08-03T23:41:30.876Z,8.73
2022-08-03T23:44:00.955Z,9.32
2022-08-03T23:46:30.481Z,9.43
2022-08-03T23:49:00.716Z,9.90
2022-08-03T23:52:08.978Z,9.25
2022-08-03T23:54:54.803Z,9.20
2022-08-03T23:57:46.896Z,9.80
